sensor_id;sensor_type;location;lat;lon;timestamp;temperature;humidity
1181;DHT22;579;52.046;8.532;2022-09-20T00:03:28;12.50;1.00
1181;DHT22;579;52.046;8.532;2022-09-20T00:05:54;13.00;1.00
1181;DHT22;579;52.046;8.532;2022-09-20T00:08:20;13.10;1.00
1181;DHT22;579;52.046;8.532;2022-09-20T00:10:46;13.00;1.00
1181;DHT22;579;52.046;8.532;2022-09-20T00:13:14;12.90;1.00
1181;DHT22;579;52.046;8.532;2022-09-20T00:15:41;13.10;1.00
1181;DHT22;579;52.046;8.532;2022-09-20T00:18:09;12.80;1.00
1181;DHT22;579;52.046;8.532;2022-09-20T00:23:16;12.50;1.00
1181;DHT22;579;52.046;8.532;2022-09-20T00:25:43;12.80;1.00
1181;DHT22;579;52.046;8.532;2022-09-20T00:28:10;12.40;1.00
1181;DHT22;579;52.046;8.532;2022-09-20T00:30:37;12.40;1.00
1181;DHT22;579;52.046;8.532;2022-09-20T00:33:03;12.40;1.00
1181;DHT22;579;52.046;8.532;2022-09-20T00:35:30;12.40;1.00
1181;DHT22;579;52.046;8.532;2022-09-20T00:37:56;12.70;1.00
1181;DHT22;579;52.046;8.532;2022-09-20T00:43:02;12.60;1.00
1181;DHT22;579;52.046;8.532;2022-09-20T00:45:29;12.30;1.00
1181;DHT22;579;52.046;8.532;2022-09-20T00:48:00;13.10;1.00
1181;DHT22;579;52.046;8.532;2022-09-20T00:50:32;13.20;1.00
1181;DHT22;579;52.046;8.532;2022-09-20T00:53:06;13.00;1.00
1181;DHT22;579;52.046;8.532;2022-09-20T00:55:37;13.30;1.00
1181;DHT22;579;52.046;8.532;2022-09-20T01:03:13;13.40;1.00
1181;DHT22;579;52.046;8.532;2022-09-20T01:05:41;13.60;1.00
1181;DHT22;579;52.046;8.532;2022-09-20T01:08:09;13.70;1.00
1181;DHT22;579;52.046;8.532;2022-09-20T01:10:36;13.50;1.00
1181;DHT22;579;52.046;8.532;2022-09-20T01:13:03;13.80;1.00
1181;DHT22;579;52.046;8.532;2022-09-20T01:15:30;13.80;1.00
1181;DHT22;579;52.046;8.532;2022-09-20T01:17:58;13.80;1.00
1181;DHT22;579;52.046;8.532;2022-09-20T01:20:54;13.90;1.00
1181;DHT22;579;52.046;8.532;2022-09-20T01:23:34;13.80;1.00
1181;DHT22;579;52.046;8.532;2022-09-20T01:26:27;13.40;1.00
1181;DHT22;579;52.046;8.532;2022-09-20T01:29:05;13.40;1.00
1181;DHT22;579;52.046;8.532;2022-09-20T01:31:43;13.70;1.00
1181;DHT22;579;52.046;8.532;2022-09-20T01:34:13;13.50;1.00
1181;DHT22;579;52.046;8.532;2022-09-20T01:41:49;12.90;1.00
1181;DHT22;579;52.046;8.532;2022-09-20T01:44:22;12.80;1.00
1181;DHT22;579;52.046;8.532;2022-09-20T01:46:55;12.80;1.00
1181;DHT22;579;52.046;8.532;2022-09-20T01:49:31;12.90;1.00
1181;DHT22;579;52.046;8.532;2022-09-20T02:02:28;12.90;1.00
1181;DHT22;579;52.046;8.532;2022-09-20T02:05:42;12.30;1.00
1181;DHT22;579;52.046;8.532;2022-09-20T02:11:58;12.90;1.00
1181;DHT22;579;52.046;8.532;2022-09-20T02:14:40;12.60;1.00
1181;DHT22;579;52.046;8.532;2022-09-20T02:17:13;13.00;1.00
1181;DHT22;579;52.046;8.532;2022-09-20T02:21:21;12.60;1.00
1181;DHT22;579;52.046;8.532;2022-09-20T02:24:01;13.10;1.00
1181;DHT22;579;52.046;8.532;2022-09-20T02:26:36;13.00;1.00
1181;DHT22;579;52.046;8.532;2022-09-20T02:29:15;12.90;1.00
1181;DHT22;579;52.046;8.532;2022-09-20T02:32:07;12.40;1.00
1181;DHT22;579;52.046;8.532;2022-09-20T02:34:50;12.70;1.00
1181;DHT22;579;52.046;8.532;2022-09-20T02:44:48;13.20;1.00
1181;DHT22;579;52.046;8.532;2022-09-20T02:47:25;13.50;1.00
1181;DHT22;579;52.046;8.532;2022-09-20T02:50:10;13.40;1.00
1181;DHT22;579;52.046;8.532;2022-09-20T02:52:50;13.20;1.00
1181;DHT22;579;52.046;8.532;2022-09-20T02:55:30;13.30;1.00
1181;DHT22;579;52.046;8.532;2022-09-20T03:02:35;13.10;1.00
1181;DHT22;579;52.046;8.532;2022-09-20T03:05:12;13.10;1.00
1181;DHT22;579;52.046;8.532;2022-09-20T03:07:53;13.20;1.00
1181;DHT22;579;52.046;8.532;2022-09-20T03:10:33;13.20;1.00
1181;DHT22;579;52.046;8.532;2022-09-20T03:13:12;13.20;1.00
1181;DHT22;579;52.046;8.532;2022-09-20T03:16:00;13.00;1.00
1181;DHT22;579;52.046;8.532;2022-09-20T03:23:04;13.00;1.00
1181;DHT22;579;52.046;8.532;2022-09-20T03:25:46;13.10;1.00
1181;DHT22;579;52.046;8.532;2022-09-20T03:28:36;13.40;1.00
1181;DHT22;579;52.046;8.532;2022-09-20T03:31:18;13.30;1.00
1181;DHT22;579;52.046;8.532;2022-09-20T03:34:00;13.20;1.00
1181;DHT22;579;52.046;8.532;2022-09-20T03:36:46;13.00;1.00
1181;DHT22;579;52.046;8.532;2022-09-20T03:43:40;12.40;1.00
1181;DHT22;579;52.046;8.532;2022-09-20T03:46:16;12.50;1.00
1181;DHT22;579;52.046;8.532;2022-09-20T03:49:08;13.00;1.00
1181;DHT22;579;52.046;8.532;2022-09-20T03:51:54;13.10;1.00
1181;DHT22;579;52.046;8.532;2022-09-20T03:54:53;13.20;1.00
1181;DHT22;579;52.046;8.532;2022-09-20T03:57:40;13.40;1.00
1181;DHT22;579;52.046;8.532;2022-09-20T04:05:01;13.70;1.00
1181;DHT22;579;52.046;8.532;2022-09-20T04:07:37;13.50;1.00
1181;DHT22;579;52.046;8.532;2022-09-20T04:10:19;13.70;1.00
1181;DHT22;579;52.046;8.532;2022-09-20T04:13:08;13.70;1.00
1181;DHT22;579;52.046;8.532;2022-09-20T04:16:04;13.30;1.00
1181;DHT22;579;52.046;8.532;2022-09-20T04:18:38;12.90;1.00
1181;DHT22;579;52.046;8.532;2022-09-20T04:25:34;12.30;1.00
1181;DHT22;579;52.046;8.532;2022-09-20T04:28:07;12.30;1.00
1181;DHT22;579;52.046;8.532;2022-09-20T04:30:39;12.30;1.00
1181;DHT22;579;52.046;8.532;2022-09-20T04:33:14;12.20;1.00
1181;DHT22;579;52.046;8.532;2022-09-20T04:35:49;12.50;1.00
1181;DHT22;579;52.046;8.532;2022-09-20T04:38:39;12.50;1.00
1181;DHT22;579;52.046;8.532;2022-09-20T04:47:06;11.80;1.00
1181;DHT22;579;52.046;8.532;2022-09-20T04:56:19;12.10;1.00
1181;DHT22;579;52.046;8.532;2022-09-20T04:58:48;12.10;1.00
1181;DHT22;579;52.046;8.532;2022-09-20T05:07:57;12.80;1.00
1181;DHT22;579;52.046;8.532;2022-09-20T05:11:20;12.40;1.00
1181;DHT22;579;52.046;8.532;2022-09-20T05:14:09;12.50;1.00
1181;DHT22;579;52.046;8.532;2022-09-20T05:17:11;12.50;1.00
1181;DHT22;579;52.046;8.532;2022-09-20T05:19:56;12.20;1.00
1181;DHT22;579;52.046;8.532;2022-09-20T05:28:01;12.10;1.00
1181;DHT22;579;52.046;8.532;2022-09-20T05:30:35;12.20;1.00
1181;DHT22;579;52.046;8.532;2022-09-20T05:33:13;12.10;1.00
1181;DHT22;579;52.046;8.532;2022-09-20T05:35:51;11.80;1.00
1181;DHT22;579;52.046;8.532;2022-09-20T05:38:35;11.90;1.00
1181;DHT22;579;52.046;8.532;2022-09-20T05:41:15;12.10;1.00
1181;DHT22;579;52.046;8.532;2022-09-20T05:48:08;12.60;1.00
1181;DHT22;579;52.046;8.532;2022-09-20T05:50:45;12.50;1.00
1181;DHT22;579;52.046;8.532;2022-09-20T05:53:49;12.60;1.00
1181;DHT22;579;52.046;8.532;2022-09-20T05:56:40;12.90;1.00
1181;DHT22;579;52.046;8.532;2022-09-20T05:59:27;13.20;1.00
1181;DHT22;579;52.046;8.532;2022-09-20T06:02:09;12.70;1.00
1181;DHT22;579;52.046;8.532;2022-09-20T06:07:38;13.20;1.00
1181;DHT22;579;52.046;8.532;2022-09-20T06:10:34;13.30;1.00
1181;DHT22;579;52.046;8.532;2022-09-20T06:13:17;13.00;1.00
1181;DHT22;579;52.046;8.532;2022-09-20T06:16:06;13.20;1.00
1181;DHT22;579;52.046;8.532;2022-09-20T06:18:39;13.30;1.00
1181;DHT22;579;52.046;8.532;2022-09-20T06:21:19;13.70;1.00
1181;DHT22;579;52.046;8.532;2022-09-20T06:26:57;13.20;1.00
1181;DHT22;579;52.046;8.532;2022-09-20T06:29:28;13.80;1.00
1181;DHT22;579;52.046;8.532;2022-09-20T06:31:56;14.00;1.00
1181;DHT22;579;52.046;8.532;2022-09-20T06:34:22;13.90;1.00
1181;DHT22;579;52.046;8.532;2022-09-20T06:36:59;13.80;1.00
1181;DHT22;579;52.046;8.532;2022-09-20T06:40:00;13.70;1.00
1181;DHT22;579;52.046;8.532;2022-09-20T06:46:59;14.00;1.00
1181;DHT22;579;52.046;8.532;2022-09-20T06:49:26;14.00;1.00
1181;DHT22;579;52.046;8.532;2022-09-20T06:51:54;13.90;1.00
1181;DHT22;579;52.046;8.532;2022-09-20T06:54:22;13.90;1.00
1181;DHT22;579;52.046;8.532;2022-09-20T06:56:49;14.00;1.00
1181;DHT22;579;52.046;8.532;2022-09-20T06:59:17;14.30;1.00
1181;DHT22;579;52.046;8.532;2022-09-20T07:01:44;14.30;1.00
1181;DHT22;579;52.046;8.532;2022-09-20T07:06:58;14.50;1.00
1181;DHT22;579;52.046;8.532;2022-09-20T07:09:25;14.40;1.00
1181;DHT22;579;52.046;8.532;2022-09-20T07:11:52;14.50;1.00
1181;DHT22;579;52.046;8.532;2022-09-20T07:14:20;14.40;1.00
1181;DHT22;579;52.046;8.532;2022-09-20T07:16:47;14.50;1.00
1181;DHT22;579;52.046;8.532;2022-09-20T07:19:14;14.30;1.00
1181;DHT22;579;52.046;8.532;2022-09-20T07:24:28;13.70;1.00
1181;DHT22;579;52.046;8.532;2022-09-20T07:26:58;13.80;1.00
1181;DHT22;579;52.046;8.532;2022-09-20T07:29:26;14.00;1.00
1181;DHT22;579;52.046;8.532;2022-09-20T07:31:54;14.20;1.00
1181;DHT22;579;52.046;8.532;2022-09-20T07:34:21;14.10;1.00
1181;DHT22;579;52.046;8.532;2022-09-20T07:36:48;13.80;1.00
1181;DHT22;579;52.046;8.532;2022-09-20T07:39:15;14.20;1.00
1181;DHT22;579;52.046;8.532;2022-09-20T07:42:10;14.60;1.00
1181;DHT22;579;52.046;8.532;2022-09-20T07:44:36;14.40;1.00
1181;DHT22;579;52.046;8.532;2022-09-20T07:47:07;14.30;1.00
1181;DHT22;579;52.046;8.532;2022-09-20T07:49:36;14.60;1.00
1181;DHT22;579;52.046;8.532;2022-09-20T07:52:02;14.40;1.00
1181;DHT22;579;52.046;8.532;2022-09-20T07:54:29;14.20;1.00
1181;DHT22;579;52.046;8.532;2022-09-20T07:56:56;14.10;1.00
1181;DHT22;579;52.046;8.532;2022-09-20T08:02:31;14.30;1.00
1181;DHT22;579;52.046;8.532;2022-09-20T08:04:57;14.60;1.00
1181;DHT22;579;52.046;8.532;2022-09-20T08:07:24;14.60;1.00
1181;DHT22;579;52.046;8.532;2022-09-20T08:09:51;14.90;1.00
1181;DHT22;579;52.046;8.532;2022-09-20T08:12:19;15.10;1.00
1181;DHT22;579;52.046;8.532;2022-09-20T08:14:47;14.90;1.00
1181;DHT22;579;52.046;8.532;2022-09-20T08:17:14;14.90;1.00
1181;DHT22;579;52.046;8.532;2022-09-20T08:22:59;15.30;1.00
1181;DHT22;579;52.046;8.532;2022-09-20T08:25:27;15.50;1.00
1181;DHT22;579;52.046;8.532;2022-09-20T08:27:54;15.70;1.00
1181;DHT22;579;52.046;8.532;2022-09-20T08:30:21;16.00;1.00
1181;DHT22;579;52.046;8.532;2022-09-20T08:32:48;15.80;1.00
1181;DHT22;579;52.046;8.532;2022-09-20T08:35:15;15.90;1.00
1181;DHT22;579;52.046;8.532;2022-09-20T08:37:47;15.80;1.00
1181;DHT22;579;52.046;8.532;2022-09-20T08:40:29;15.60;1.00
1181;DHT22;579;52.046;8.532;2022-09-20T08:42:56;15.90;1.00
1181;DHT22;579;52.046;8.532;2022-09-20T08:45:25;15.80;1.00
1181;DHT22;579;52.046;8.532;2022-09-20T08:47:55;15.90;1.00
1181;DHT22;579;52.046;8.532;2022-09-20T08:50:23;15.90;1.00
1181;DHT22;579;52.046;8.532;2022-09-20T08:52:53;15.90;1.00
1181;DHT22;579;52.046;8.532;2022-09-20T08:55:24;15.90;1.00
1181;DHT22;579;52.046;8.532;2022-09-20T08:58:11;16.20;1.00
1181;DHT22;579;52.046;8.532;2022-09-20T09:00:45;15.80;1.00
1181;DHT22;579;52.046;8.532;2022-09-20T09:03:13;16.00;1.00
1181;DHT22;579;52.046;8.532;2022-09-20T09:05:44;15.90;1.00
1181;DHT22;579;52.046;8.532;2022-09-20T09:08:13;16.10;1.00
1181;DHT22;579;52.046;8.532;2022-09-20T09:10:43;16.30;1.00
1181;DHT22;579;52.046;8.532;2022-09-20T09:18:32;17.00;1.00
1181;DHT22;579;52.046;8.532;2022-09-20T09:21:00;17.10;1.00
1181;DHT22;579;52.046;8.532;2022-09-20T09:23:31;17.60;1.00
1181;DHT22;579;52.046;8.532;2022-09-20T09:26:14;17.70;1.00
1181;DHT22;579;52.046;8.532;2022-09-20T09:28:42;18.00;1.00
1181;DHT22;579;52.046;8.532;2022-09-20T09:31:13;18.20;1.00
1181;DHT22;579;52.046;8.532;2022-09-20T09:38:30;17.90;1.00
1181;DHT22;579;52.046;8.532;2022-09-20T09:41:00;17.60;1.00
1181;DHT22;579;52.046;8.532;2022-09-20T09:43:29;17.40;1.00
1181;DHT22;579;52.046;8.532;2022-09-20T09:46:16;17.50;1.00
1181;DHT22;579;52.046;8.532;2022-09-20T09:48:46;17.80;1.00
1181;DHT22;579;52.046;8.532;2022-09-20T09:51:17;17.80;1.00
1181;DHT22;579;52.046;8.532;2022-09-20T09:56:34;17.70;1.00
1181;DHT22;579;52.046;8.532;2022-09-20T09:59:28;17.20;1.00
1181;DHT22;579;52.046;8.532;2022-09-20T10:02:33;17.20;1.00
1181;DHT22;579;52.046;8.532;2022-09-20T10:05:25;16.90;1.00
1181;DHT22;579;52.046;8.532;2022-09-20T10:08:12;16.80;1.00
1181;DHT22;579;52.046;8.532;2022-09-20T10:11:00;17.10;1.00
1181;DHT22;579;52.046;8.532;2022-09-20T10:17:10;17.00;1.00
1181;DHT22;579;52.046;8.532;2022-09-20T10:19:55;17.20;1.00
1181;DHT22;579;52.046;8.532;2022-09-20T10:22:40;17.10;1.00
1181;DHT22;579;52.046;8.532;2022-09-20T10:25:23;16.80;1.00
1181;DHT22;579;52.046;8.532;2022-09-20T10:28:06;16.90;1.00
1181;DHT22;579;52.046;8.532;2022-09-20T10:30:46;16.50;1.00
1181;DHT22;579;52.046;8.532;2022-09-20T10:36:13;15.90;1.00
1181;DHT22;579;52.046;8.532;2022-09-20T10:38:49;15.70;1.00
1181;DHT22;579;52.046;8.532;2022-09-20T10:41:34;15.30;1.00
1181;DHT22;579;52.046;8.532;2022-09-20T10:47:26;15.30;1.00
1181;DHT22;579;52.046;8.532;2022-09-20T10:50:03;15.30;1.00
1181;DHT22;579;52.046;8.532;2022-09-20T10:56:09;15.80;1.00
1181;DHT22;579;52.046;8.532;2022-09-20T11:01:53;15.80;1.00
1181;DHT22;579;52.046;8.532;2022-09-20T11:08:02;15.70;1.00
1181;DHT22;579;52.046;8.532;2022-09-20T11:10:36;15.50;1.00
1181;DHT22;579;52.046;8.532;2022-09-20T11:15:48;15.90;1.00
1181;DHT22;579;52.046;8.532;2022-09-20T11:18:23;15.80;1.00
1181;DHT22;579;52.046;8.532;2022-09-20T11:21:01;15.90;1.00
1181;DHT22;579;52.046;8.532;2022-09-20T11:23:41;16.00;1.00
1181;DHT22;579;52.046;8.532;2022-09-20T11:26:13;15.90;1.00
1181;DHT22;579;52.046;8.532;2022-09-20T11:28:47;16.20;1.00
1181;DHT22;579;52.046;8.532;2022-09-20T11:36:30;16.00;1.00
1181;DHT22;579;52.046;8.532;2022-09-20T11:39:07;16.20;1.00
1181;DHT22;579;52.046;8.532;2022-09-20T11:41:36;16.70;1.00
1181;DHT22;579;52.046;8.532;2022-09-20T11:44:05;16.90;1.00
1181;DHT22;579;52.046;8.532;2022-09-20T11:46:38;17.10;1.00
1181;DHT22;579;52.046;8.532;2022-09-20T11:49:10;17.30;1.00
1181;DHT22;579;52.046;8.532;2022-09-20T11:54:54;17.40;1.00
1181;DHT22;579;52.046;8.532;2022-09-20T11:58:01;17.40;1.00
1181;DHT22;579;52.046;8.532;2022-09-20T12:00:33;17.50;1.00
1181;DHT22;579;52.046;8.532;2022-09-20T12:03:03;17.70;1.00
1181;DHT22;579;52.046;8.532;2022-09-20T12:05:32;17.80;1.00
1181;DHT22;579;52.046;8.532;2022-09-20T12:08:04;17.80;1.00
1181;DHT22;579;52.046;8.532;2022-09-20T12:14:29;18.00;1.00
1181;DHT22;579;52.046;8.532;2022-09-20T12:16:57;17.80;1.00
1181;DHT22;579;52.046;8.532;2022-09-20T12:19:37;17.90;1.00
1181;DHT22;579;52.046;8.532;2022-09-20T12:22:26;17.70;1.00
1181;DHT22;579;52.046;8.532;2022-09-20T12:28:03;17.80;1.00
1181;DHT22;579;52.046;8.532;2022-09-20T12:34:34;17.80;1.00
1181;DHT22;579;52.046;8.532;2022-09-20T12:37:19;18.10;1.00
1181;DHT22;579;52.046;8.532;2022-09-20T12:39:53;18.00;1.00
1181;DHT22;579;52.046;8.532;2022-09-20T12:42:31;18.30;1.00
1181;DHT22;579;52.046;8.532;2022-09-20T12:45:03;18.20;1.00
1181;DHT22;579;52.046;8.532;2022-09-20T12:47:33;18.30;1.00
1181;DHT22;579;52.046;8.532;2022-09-20T12:54:02;18.20;1.00
1181;DHT22;579;52.046;8.532;2022-09-20T12:56:34;17.90;1.00
1181;DHT22;579;52.046;8.532;2022-09-20T12:59:02;17.80;1.00
1181;DHT22;579;52.046;8.532;2022-09-20T13:01:38;17.70;1.00
1181;DHT22;579;52.046;8.532;2022-09-20T13:04:39;17.50;1.00
1181;DHT22;579;52.046;8.532;2022-09-20T13:07:42;17.80;1.00
1181;DHT22;579;52.046;8.532;2022-09-20T13:13:04;17.80;1.00
1181;DHT22;579;52.046;8.532;2022-09-20T13:15:39;18.00;1.00
1181;DHT22;579;52.046;8.532;2022-09-20T13:18:10;18.10;1.00
1181;DHT22;579;52.046;8.532;2022-09-20T13:20:43;18.10;1.00
1181;DHT22;579;52.046;8.532;2022-09-20T13:23:17;18.20;1.00
1181;DHT22;579;52.046;8.532;2022-09-20T13:25:46;17.60;1.00
1181;DHT22;579;52.046;8.532;2022-09-20T13:32:15;17.80;1.00
1181;DHT22;579;52.046;8.532;2022-09-20T13:34:42;17.70;1.00
1181;DHT22;579;52.046;8.532;2022-09-20T13:37:16;17.70;1.00
1181;DHT22;579;52.046;8.532;2022-09-20T13:39:46;18.10;1.00
1181;DHT22;579;52.046;8.532;2022-09-20T13:42:15;18.10;1.00
1181;DHT22;579;52.046;8.532;2022-09-20T13:44:45;18.30;1.00
1181;DHT22;579;52.046;8.532;2022-09-20T13:51:33;18.60;1.00
1181;DHT22;579;52.046;8.532;2022-09-20T13:54:18;18.80;1.00
1181;DHT22;579;52.046;8.532;2022-09-20T13:56:47;18.90;1.00
1181;DHT22;579;52.046;8.532;2022-09-20T13:59:15;19.00;1.00
1181;DHT22;579;52.046;8.532;2022-09-20T14:01:48;19.10;1.00
1181;DHT22;579;52.046;8.532;2022-09-20T14:04:21;18.80;1.00
1181;DHT22;579;52.046;8.532;2022-09-20T14:11:28;18.20;1.00
1181;DHT22;579;52.046;8.532;2022-09-20T14:13:57;18.10;1.00
1181;DHT22;579;52.046;8.532;2022-09-20T14:16:28;18.10;1.00
1181;DHT22;579;52.046;8.532;2022-09-20T14:18:57;18.30;1.00
1181;DHT22;579;52.046;8.532;2022-09-20T14:21:26;18.30;1.00
1181;DHT22;579;52.046;8.532;2022-09-20T14:23:55;18.10;1.00
1181;DHT22;579;52.046;8.532;2022-09-20T14:29:37;17.50;1.00
1181;DHT22;579;52.046;8.532;2022-09-20T14:32:09;17.70;1.00
1181;DHT22;579;52.046;8.532;2022-09-20T14:34:44;17.90;1.00
1181;DHT22;579;52.046;8.532;2022-09-20T14:37:15;17.70;1.00
1181;DHT22;579;52.046;8.532;2022-09-20T14:39:55;17.80;1.00
1181;DHT22;579;52.046;8.532;2022-09-20T14:42:28;18.00;1.00
1181;DHT22;579;52.046;8.532;2022-09-20T14:47:38;18.00;1.00
1181;DHT22;579;52.046;8.532;2022-09-20T14:50:23;17.70;1.00
1181;DHT22;579;52.046;8.532;2022-09-20T14:55:57;18.20;1.00
1181;DHT22;579;52.046;8.532;2022-09-20T14:58:25;18.50;1.00
1181;DHT22;579;52.046;8.532;2022-09-20T15:00:54;19.00;1.00
1181;DHT22;579;52.046;8.532;2022-09-20T15:08:01;23.70;1.00
1181;DHT22;579;52.046;8.532;2022-09-20T15:10:28;23.80;1.00
1181;DHT22;579;52.046;8.532;2022-09-20T15:12:55;24.40;1.00
1181;DHT22;579;52.046;8.532;2022-09-20T15:15:22;26.60;1.00
1181;DHT22;579;52.046;8.532;2022-09-20T15:17:48;28.20;1.00
1181;DHT22;579;52.046;8.532;2022-09-20T15:20:17;29.70;1.00
1181;DHT22;579;52.046;8.532;2022-09-20T15:22:46;30.80;1.00
1181;DHT22;579;52.046;8.532;2022-09-20T15:27:52;32.60;1.00
1181;DHT22;579;52.046;8.532;2022-09-20T15:30:19;31.40;1.00
1181;DHT22;579;52.046;8.532;2022-09-20T15:32:46;30.60;1.00
1181;DHT22;579;52.046;8.532;2022-09-20T15:35:12;29.30;1.00
1181;DHT22;579;52.046;8.532;2022-09-20T15:37:40;27.80;1.00
1181;DHT22;579;52.046;8.532;2022-09-20T15:40:08;26.60;1.00
1181;DHT22;579;52.046;8.532;2022-09-20T15:42:37;25.50;1.00
1181;DHT22;579;52.046;8.532;2022-09-20T15:47:56;23.50;1.00
1181;DHT22;579;52.046;8.532;2022-09-20T15:50:23;22.90;1.00
1181;DHT22;579;52.046;8.532;2022-09-20T15:52:50;22.10;1.00
1181;DHT22;579;52.046;8.532;2022-09-20T15:55:17;21.80;1.00
1181;DHT22;579;52.046;8.532;2022-09-20T15:57:44;21.50;1.00
1181;DHT22;579;52.046;8.532;2022-09-20T16:00:13;20.90;1.00
1181;DHT22;579;52.046;8.532;2022-09-20T16:02:42;20.80;1.00
1181;DHT22;579;52.046;8.532;2022-09-20T16:07:49;20.30;1.00
1181;DHT22;579;52.046;8.532;2022-09-20T16:10:16;20.30;1.00
1181;DHT22;579;52.046;8.532;2022-09-20T16:12:43;19.90;1.00
1181;DHT22;579;52.046;8.532;2022-09-20T16:15:10;19.90;1.00
1181;DHT22;579;52.046;8.532;2022-09-20T16:17:37;19.50;1.00
1181;DHT22;579;52.046;8.532;2022-09-20T16:20:21;19.50;1.00
1181;DHT22;579;52.046;8.532;2022-09-20T16:25:31;19.10;1.00
1181;DHT22;579;52.046;8.532;2022-09-20T16:27:57;19.00;1.00
1181;DHT22;579;52.046;8.532;2022-09-20T16:30:24;18.80;1.00
1181;DHT22;579;52.046;8.532;2022-09-20T16:32:51;18.90;1.00
1181;DHT22;579;52.046;8.532;2022-09-20T16:35:18;18.80;1.00
1181;DHT22;579;52.046;8.532;2022-09-20T16:37:44;18.60;1.00
1181;DHT22;579;52.046;8.532;2022-09-20T16:40:11;18.50;1.00
1181;DHT22;579;52.046;8.532;2022-09-20T16:45:19;18.20;1.00
1181;DHT22;579;52.046;8.532;2022-09-20T16:47:45;18.20;1.00
1181;DHT22;579;52.046;8.532;2022-09-20T16:50:13;18.10;1.00
1181;DHT22;579;52.046;8.532;2022-09-20T16:52:39;17.90;1.00
1181;DHT22;579;52.046;8.532;2022-09-20T16:55:08;17.80;1.00
1181;DHT22;579;52.046;8.532;2022-09-20T16:57:35;17.70;1.00
1181;DHT22;579;52.046;8.532;2022-09-20T17:00:03;17.60;1.00
1181;DHT22;579;52.046;8.532;2022-09-20T17:06:32;17.30;1.00
1181;DHT22;579;52.046;8.532;2022-09-20T17:09:00;17.20;1.00
1181;DHT22;579;52.046;8.532;2022-09-20T17:11:28;17.20;1.00
1181;DHT22;579;52.046;8.532;2022-09-20T17:13:56;17.20;1.00
1181;DHT22;579;52.046;8.532;2022-09-20T17:16:24;17.30;1.00
1181;DHT22;579;52.046;8.532;2022-09-20T17:18:52;17.10;1.00
1181;DHT22;579;52.046;8.532;2022-09-20T17:21:20;16.90;1.00
1181;DHT22;579;52.046;8.532;2022-09-20T17:24:12;16.70;1.00
1181;DHT22;579;52.046;8.532;2022-09-20T17:26:41;16.80;1.00
1181;DHT22;579;52.046;8.532;2022-09-20T17:29:11;16.80;1.00
1181;DHT22;579;52.046;8.532;2022-09-20T17:31:41;16.40;1.00
1181;DHT22;579;52.046;8.532;2022-09-20T17:34:09;16.30;1.00
1181;DHT22;579;52.046;8.532;2022-09-20T17:36:39;16.10;1.00
1181;DHT22;579;52.046;8.532;2022-09-20T17:39:08;16.00;1.00
1181;DHT22;579;52.046;8.532;2022-09-20T17:41:58;15.70;1.00
1181;DHT22;579;52.046;8.532;2022-09-20T17:44:26;15.50;1.00
1181;DHT22;579;52.046;8.532;2022-09-20T17:46:53;15.50;1.00
1181;DHT22;579;52.046;8.532;2022-09-20T17:49:20;15.40;1.00
1181;DHT22;579;52.046;8.532;2022-09-20T17:51:49;15.20;1.00
1181;DHT22;579;52.046;8.532;2022-09-20T17:54:16;15.10;1.00
1181;DHT22;579;52.046;8.532;2022-09-20T17:56:45;15.10;1.00
1181;DHT22;579;52.046;8.532;2022-09-20T18:03:00;14.80;1.00
1181;DHT22;579;52.046;8.532;2022-09-20T18:05:26;14.80;1.00
1181;DHT22;579;52.046;8.532;2022-09-20T18:07:53;14.60;1.00
1181;DHT22;579;52.046;8.532;2022-09-20T18:10:20;14.60;1.00
1181;DHT22;579;52.046;8.532;2022-09-20T18:12:47;14.50;1.00
1181;DHT22;579;52.046;8.532;2022-09-20T18:15:14;14.40;1.00
1181;DHT22;579;52.046;8.532;2022-09-20T18:17:41;14.40;1.00
1181;DHT22;579;52.046;8.532;2022-09-20T18:22:48;14.30;1.00
1181;DHT22;579;52.046;8.532;2022-09-20T18:25:15;14.20;1.00
1181;DHT22;579;52.046;8.532;2022-09-20T18:27:41;14.10;1.00
1181;DHT22;579;52.046;8.532;2022-09-20T18:30:09;14.10;1.00
1181;DHT22;579;52.046;8.532;2022-09-20T18:32:36;14.10;1.00
1181;DHT22;579;52.046;8.532;2022-09-20T18:35:02;13.90;1.00
1181;DHT22;579;52.046;8.532;2022-09-20T18:37:29;13.70;1.00
1181;DHT22;579;52.046;8.532;2022-09-20T18:42:36;13.60;1.00
1181;DHT22;579;52.046;8.532;2022-09-20T18:45:02;13.80;1.00
1181;DHT22;579;52.046;8.532;2022-09-20T18:47:30;13.60;1.00
1181;DHT22;579;52.046;8.532;2022-09-20T18:49:56;13.60;1.00
1181;DHT22;579;52.046;8.532;2022-09-20T18:52:23;13.50;1.00
1181;DHT22;579;52.046;8.532;2022-09-20T18:54:50;13.50;1.00
1181;DHT22;579;52.046;8.532;2022-09-20T18:57:17;13.40;1.00
1181;DHT22;579;52.046;8.532;2022-09-20T19:02:33;13.70;1.00
1181;DHT22;579;52.046;8.532;2022-09-20T19:08:11;13.40;1.00
1181;DHT22;579;52.046;8.532;2022-09-20T19:10:46;13.50;1.00
1181;DHT22;579;52.046;8.532;2022-09-20T19:13:24;13.30;1.00
1181;DHT22;579;52.046;8.532;2022-09-20T19:16:15;13.10;1.00
1181;DHT22;579;52.046;8.532;2022-09-20T19:21:39;13.00;1.00
1181;DHT22;579;52.046;8.532;2022-09-20T19:24:18;12.90;1.00
1181;DHT22;579;52.046;8.532;2022-09-20T19:26:50;13.20;1.00
1181;DHT22;579;52.046;8.532;2022-09-20T19:29:19;13.00;1.00
1181;DHT22;579;52.046;8.532;2022-09-20T19:31:47;12.80;1.00
1181;DHT22;579;52.046;8.532;2022-09-20T19:34:18;12.60;1.00
1181;DHT22;579;52.046;8.532;2022-09-20T19:39:38;12.50;1.00
1181;DHT22;579;52.046;8.532;2022-09-20T19:42:17;12.50;1.00
1181;DHT22;579;52.046;8.532;2022-09-20T19:44:55;12.50;1.00
1181;DHT22;579;52.046;8.532;2022-09-20T19:47:33;12.70;1.00
1181;DHT22;579;52.046;8.532;2022-09-20T19:50:13;12.50;1.00
1181;DHT22;579;52.046;8.532;2022-09-20T19:52:41;12.40;1.00
1181;DHT22;579;52.046;8.532;2022-09-20T19:59:29;12.70;1.00
1181;DHT22;579;52.046;8.532;2022-09-20T20:01:57;12.40;1.00
1181;DHT22;579;52.046;8.532;2022-09-20T20:04:25;12.40;1.00
1181;DHT22;579;52.046;8.532;2022-09-20T20:06:58;12.40;1.00
1181;DHT22;579;52.046;8.532;2022-09-20T20:09:34;12.50;1.00
1181;DHT22;579;52.046;8.532;2022-09-20T20:12:09;12.60;1.00
1181;DHT22;579;52.046;8.532;2022-09-20T20:17:34;12.20;1.00
1181;DHT22;579;52.046;8.532;2022-09-20T20:20:14;12.10;1.00
1181;DHT22;579;52.046;8.532;2022-09-20T20:23:09;12.10;1.00
1181;DHT22;579;52.046;8.532;2022-09-20T20:26:06;12.30;1.00
1181;DHT22;579;52.046;8.532;2022-09-20T20:28:33;12.30;1.00
1181;DHT22;579;52.046;8.532;2022-09-20T20:31:00;12.00;1.00
1181;DHT22;579;52.046;8.532;2022-09-20T20:37:59;11.80;1.00
1181;DHT22;579;52.046;8.532;2022-09-20T20:40:25;11.80;1.00
1181;DHT22;579;52.046;8.532;2022-09-20T20:42:54;11.80;1.00
1181;DHT22;579;52.046;8.532;2022-09-20T20:45:26;11.80;1.00
1181;DHT22;579;52.046;8.532;2022-09-20T20:47:55;11.80;1.00
1181;DHT22;579;52.046;8.532;2022-09-20T20:50:23;11.60;1.00
1181;DHT22;579;52.046;8.532;2022-09-20T20:57:57;11.50;1.00
1181;DHT22;579;52.046;8.532;2022-09-20T21:00:25;11.40;1.00
1181;DHT22;579;52.046;8.532;2022-09-20T21:02:56;11.40;1.00
1181;DHT22;579;52.046;8.532;2022-09-20T21:07:50;11.30;1.00
1181;DHT22;579;52.046;8.532;2022-09-20T21:10:17;11.60;1.00
1181;DHT22;579;52.046;8.532;2022-09-20T21:12:44;11.60;1.00
1181;DHT22;579;52.046;8.532;2022-09-20T21:18:29;11.10;1.00
1181;DHT22;579;52.046;8.532;2022-09-20T21:20:56;11.40;1.00
1181;DHT22;579;52.046;8.532;2022-09-20T21:23:23;11.40;1.00
1181;DHT22;579;52.046;8.532;2022-09-20T21:25:59;11.20;1.00
1181;DHT22;579;52.046;8.532;2022-09-20T21:28:35;11.00;1.00
1181;DHT22;579;52.046;8.532;2022-09-20T21:31:04;11.10;1.00
1181;DHT22;579;52.046;8.532;2022-09-20T21:38:42;11.10;1.00
1181;DHT22;579;52.046;8.532;2022-09-20T21:41:10;11.20;1.00
1181;DHT22;579;52.046;8.532;2022-09-20T21:43:38;11.00;1.00